sensor_id;sensor_type;location;lat;lon;timestamp;temperature;humidity
20366;DHT22;10341;49.894;8.822;2023-02-08T00:02:00;-4.70;99.90
20366;DHT22;10341;49.894;8.822;2023-02-08T00:07:19;-4.70;99.90
20366;DHT22;10341;49.894;8.822;2023-02-08T00:12:39;-4.70;99.90
20366;DHT22;10341;49.894;8.822;2023-02-08T00:17:59;-4.80;99.90
20366;DHT22;10341;49.894;8.822;2023-02-08T00:23:18;-4.80;99.90
20366;DHT22;10341;49.894;8.822;2023-02-08T00:28:38;-4.90;99.90
20366;DHT22;10341;49.894;8.822;2023-02-08T00:33:58;-4.90;99.90
20366;DHT22;10341;49.894;8.822;2023-02-08T00:39:18;-4.90;99.90
20366;DHT22;10341;49.894;8.822;2023-02-08T00:44:39;-4.90;99.90
20366;DHT22;10341;49.894;8.822;2023-02-08T00:49:58;-4.90;99.90
20366;DHT22;10341;49.894;8.822;2023-02-08T00:55:25;-5.00;99.90
20366;DHT22;10341;49.894;8.822;2023-02-08T01:00:45;-4.90;99.90
20366;DHT22;10341;49.894;8.822;2023-02-08T01:06:11;-5.10;99.90
20366;DHT22;10341;49.894;8.822;2023-02-08T01:11:32;-5.10;99.90
20366;DHT22;10341;49.894;8.822;2023-02-08T01:16:52;-5.20;99.90
20366;DHT22;10341;49.894;8.822;2023-02-08T01:22:11;-5.10;99.90
20366;DHT22;10341;49.894;8.822;2023-02-08T01:27:31;-4.80;99.90
20366;DHT22;10341;49.894;8.822;2023-02-08T01:32:50;-5.00;99.90
20366;DHT22;10341;49.894;8.822;2023-02-08T01:38:10;-5.20;99.90
20366;DHT22;10341;49.894;8.822;2023-02-08T01:43:57;-5.20;99.90
20366;DHT22;10341;49.894;8.822;2023-02-08T01:49:18;-5.30;99.90
20366;DHT22;10341;49.894;8.822;2023-02-08T01:54:50;-5.30;99.90
20366;DHT22;10341;49.894;8.822;2023-02-08T02:00:19;-5.40;99.90
20366;DHT22;10341;49.894;8.822;2023-02-08T02:05:44;-5.40;99.90
20366;DHT22;10341;49.894;8.822;2023-02-08T02:11:06;-5.40;99.90
20366;DHT22;10341;49.894;8.822;2023-02-08T02:16:29;-5.50;99.90
20366;DHT22;10341;49.894;8.822;2023-02-08T02:27:45;-5.50;99.90
20366;DHT22;10341;49.894;8.822;2023-02-08T02:33:30;-5.40;99.90
20366;DHT22;10341;49.894;8.822;2023-02-08T02:50:06;-5.50;99.90
20366;DHT22;10341;49.894;8.822;2023-02-08T02:55:31;-5.60;99.90
20366;DHT22;10341;49.894;8.822;2023-02-08T03:00:57;-5.60;99.90
20366;DHT22;10341;49.894;8.822;2023-02-08T03:12:01;-5.70;99.90
20366;DHT22;10341;49.894;8.822;2023-02-08T03:17:55;-5.80;99.90
20366;DHT22;10341;49.894;8.822;2023-02-08T03:23:21;-5.80;99.90
20366;DHT22;10341;49.894;8.822;2023-02-08T03:28:49;-5.90;99.90
20366;DHT22;10341;49.894;8.822;2023-02-08T03:34:18;-6.00;99.90
20366;DHT22;10341;49.894;8.822;2023-02-08T03:39:42;-5.90;99.90
20366;DHT22;10341;49.894;8.822;2023-02-08T03:45:50;-6.00;99.90
20366;DHT22;10341;49.894;8.822;2023-02-08T03:50:51;-6.00;99.90
20366;DHT22;10341;49.894;8.822;2023-02-08T03:56:20;-6.00;99.90
20366;DHT22;10341;49.894;8.822;2023-02-08T04:01:44;-6.00;99.90
20366;DHT22;10341;49.894;8.822;2023-02-08T04:07:04;-6.00;99.90
20366;DHT22;10341;49.894;8.822;2023-02-08T04:12:24;-6.10;99.90
20366;DHT22;10341;49.894;8.822;2023-02-08T04:17:44;-6.10;99.90
20366;DHT22;10341;49.894;8.822;2023-02-08T04:23:04;-6.10;99.90
20366;DHT22;10341;49.894;8.822;2023-02-08T04:28:23;-6.10;99.90
20366;DHT22;10341;49.894;8.822;2023-02-08T04:33:42;-6.10;99.90
20366;DHT22;10341;49.894;8.822;2023-02-08T04:39:02;-6.20;99.90
20366;DHT22;10341;49.894;8.822;2023-02-08T04:44:22;-6.20;99.90
20366;DHT22;10341;49.894;8.822;2023-02-08T04:49:41;-6.30;99.90
20366;DHT22;10341;49.894;8.822;2023-02-08T04:55:01;-6.30;99.90
20366;DHT22;10341;49.894;8.822;2023-02-08T05:00:20;-6.30;99.90
20366;DHT22;10341;49.894;8.822;2023-02-08T05:05:40;-6.30;99.90
20366;DHT22;10341;49.894;8.822;2023-02-08T05:10:59;-6.30;99.90
20366;DHT22;10341;49.894;8.822;2023-02-08T05:16:19;-6.30;99.90
20366;DHT22;10341;49.894;8.822;2023-02-08T05:21:38;-6.30;99.90
20366;DHT22;10341;49.894;8.822;2023-02-08T05:26:58;-6.30;99.90
20366;DHT22;10341;49.894;8.822;2023-02-08T05:32:17;-6.40;99.90
20366;DHT22;10341;49.894;8.822;2023-02-08T05:37:36;-6.40;99.90
20366;DHT22;10341;49.894;8.822;2023-02-08T05:42:56;-6.50;99.90
20366;DHT22;10341;49.894;8.822;2023-02-08T05:48:16;-6.50;99.90
20366;DHT22;10341;49.894;8.822;2023-02-08T05:53:36;-6.50;99.90
20366;DHT22;10341;49.894;8.822;2023-02-08T05:58:56;-6.60;99.90
20366;DHT22;10341;49.894;8.822;2023-02-08T06:04:18;-6.60;99.90
20366;DHT22;10341;49.894;8.822;2023-02-08T06:09:37;-6.60;99.90
20366;DHT22;10341;49.894;8.822;2023-02-08T06:14:56;-6.60;99.90
20366;DHT22;10341;49.894;8.822;2023-02-08T06:20:16;-6.70;99.90
20366;DHT22;10341;49.894;8.822;2023-02-08T06:25:35;-6.60;99.90
20366;DHT22;10341;49.894;8.822;2023-02-08T06:30:55;-6.60;99.90
20366;DHT22;10341;49.894;8.822;2023-02-08T06:36:14;-6.50;99.90
20366;DHT22;10341;49.894;8.822;2023-02-08T06:41:33;-6.60;99.90
20366;DHT22;10341;49.894;8.822;2023-02-08T06:46:53;-6.50;99.90
20366;DHT22;10341;49.894;8.822;2023-02-08T06:52:12;-6.60;99.90
20366;DHT22;10341;49.894;8.822;2023-02-08T06:57:32;-6.60;99.90
20366;DHT22;10341;49.894;8.822;2023-02-08T07:02:51;-6.50;99.90
20366;DHT22;10341;49.894;8.822;2023-02-08T07:08:12;-6.50;99.90
20366;DHT22;10341;49.894;8.822;2023-02-08T07:13:32;-6.40;99.90
20366;DHT22;10341;49.894;8.822;2023-02-08T07:18:51;-6.10;99.90
20366;DHT22;10341;49.894;8.822;2023-02-08T07:24:11;-5.50;99.90
20366;DHT22;10341;49.894;8.822;2023-02-08T07:29:30;-4.90;99.90
20366;DHT22;10341;49.894;8.822;2023-02-08T07:34:50;-4.20;99.90
20366;DHT22;10341;49.894;8.822;2023-02-08T07:40:10;-3.30;99.90
20366;DHT22;10341;49.894;8.822;2023-02-08T07:45:30;-2.10;99.90
20366;DHT22;10341;49.894;8.822;2023-02-08T07:50:49;-0.80;99.90
20366;DHT22;10341;49.894;8.822;2023-02-08T07:56:09;0.10;99.90
20366;DHT22;10341;49.894;8.822;2023-02-08T08:01:29;1.30;99.90
20366;DHT22;10341;49.894;8.822;2023-02-08T08:06:49;1.90;99.90
20366;DHT22;10341;49.894;8.822;2023-02-08T08:12:09;2.80;99.90
20366;DHT22;10341;49.894;8.822;2023-02-08T08:17:30;3.50;99.90
20366;DHT22;10341;49.894;8.822;2023-02-08T08:22:50;4.80;99.90
20366;DHT22;10341;49.894;8.822;2023-02-08T08:28:10;5.80;99.90
20366;DHT22;10341;49.894;8.822;2023-02-08T08:33:29;6.20;99.90
20366;DHT22;10341;49.894;8.822;2023-02-08T08:38:50;7.10;99.70
20366;DHT22;10341;49.894;8.822;2023-02-08T08:44:09;7.70;99.90
20366;DHT22;10341;49.894;8.822;2023-02-08T08:49:33;8.10;99.90
20366;DHT22;10341;49.894;8.822;2023-02-08T08:54:52;9.30;94.60
20366;DHT22;10341;49.894;8.822;2023-02-08T09:00:11;10.00;93.60
20366;DHT22;10341;49.894;8.822;2023-02-08T09:05:33;9.50;94.30
20366;DHT22;10341;49.894;8.822;2023-02-08T09:11:06;10.00;93.10
20366;DHT22;10341;49.894;8.822;2023-02-08T09:16:25;10.00;92.70
20366;DHT22;10341;49.894;8.822;2023-02-08T09:21:45;9.60;91.70
20366;DHT22;10341;49.894;8.822;2023-02-08T09:27:05;10.60;92.00
20366;DHT22;10341;49.894;8.822;2023-02-08T09:32:25;11.00;91.50
20366;DHT22;10341;49.894;8.822;2023-02-08T09:37:44;10.90;90.60
20366;DHT22;10341;49.894;8.822;2023-02-08T09:48:48;11.70;84.90
20366;DHT22;10341;49.894;8.822;2023-02-08T09:54:36;11.70;84.40
20366;DHT22;10341;49.894;8.822;2023-02-08T10:00:02;11.30;78.80
20366;DHT22;10341;49.894;8.822;2023-02-08T10:05:25;10.60;79.90
20366;DHT22;10341;49.894;8.822;2023-02-08T10:11:03;10.00;81.30
20366;DHT22;10341;49.894;8.822;2023-02-08T10:28:30;11.00;77.70
20366;DHT22;10341;49.894;8.822;2023-02-08T10:34:29;10.80;74.50
20366;DHT22;10341;49.894;8.822;2023-02-08T10:39:49;10.80;76.50
20366;DHT22;10341;49.894;8.822;2023-02-08T10:45:29;11.30;77.40
20366;DHT22;10341;49.894;8.822;2023-02-08T10:50:50;13.40;71.10
20366;DHT22;10341;49.894;8.822;2023-02-08T10:56:36;14.10;68.80
20366;DHT22;10341;49.894;8.822;2023-02-08T11:01:57;14.10;66.00
20366;DHT22;10341;49.894;8.822;2023-02-08T11:07:18;14.60;64.50
20366;DHT22;10341;49.894;8.822;2023-02-08T11:12:40;13.70;65.00
20366;DHT22;10341;49.894;8.822;2023-02-08T11:18:01;14.60;65.00
20366;DHT22;10341;49.894;8.822;2023-02-08T11:23:30;14.30;65.20
20366;DHT22;10341;49.894;8.822;2023-02-08T11:34:36;14.40;62.90
20366;DHT22;10341;49.894;8.822;2023-02-08T11:39:59;13.80;62.00
20366;DHT22;10341;49.894;8.822;2023-02-08T11:45:29;13.00;66.00
20366;DHT22;10341;49.894;8.822;2023-02-08T11:50:59;13.60;62.60
20366;DHT22;10341;49.894;8.822;2023-02-08T11:56:24;13.30;63.80
20366;DHT22;10341;49.894;8.822;2023-02-08T12:01:45;12.30;64.70
20366;DHT22;10341;49.894;8.822;2023-02-08T12:18:54;14.30;61.70
20366;DHT22;10341;49.894;8.822;2023-02-08T12:24:21;14.70;60.10
20366;DHT22;10341;49.894;8.822;2023-02-08T12:57:51;11.20;65.50
20366;DHT22;10341;49.894;8.822;2023-02-08T13:03:26;10.00;67.40
20366;DHT22;10341;49.894;8.822;2023-02-08T13:09:02;9.30;68.70
20366;DHT22;10341;49.894;8.822;2023-02-08T13:14:40;9.00;69.50
20366;DHT22;10341;49.894;8.822;2023-02-08T13:25:35;7.40;73.20
20366;DHT22;10341;49.894;8.822;2023-02-08T13:31:07;6.50;75.60
20366;DHT22;10341;49.894;8.822;2023-02-08T13:36:35;6.10;78.10
20366;DHT22;10341;49.894;8.822;2023-02-08T13:41:55;6.00;78.90
20366;DHT22;10341;49.894;8.822;2023-02-08T13:47:49;5.90;78.20
20366;DHT22;10341;49.894;8.822;2023-02-08T13:53:02;5.40;80.20
20366;DHT22;10341;49.894;8.822;2023-02-08T13:58:36;5.40;80.70
20366;DHT22;10341;49.894;8.822;2023-02-08T14:04:15;5.50;78.90
20366;DHT22;10341;49.894;8.822;2023-02-08T14:20:38;5.50;82.00
20366;DHT22;10341;49.894;8.822;2023-02-08T14:26:05;5.30;82.60
20366;DHT22;10341;49.894;8.822;2023-02-08T14:31:38;5.30;83.30
20366;DHT22;10341;49.894;8.822;2023-02-08T14:37:27;5.10;83.30
20366;DHT22;10341;49.894;8.822;2023-02-08T14:43:27;5.10;84.60
20366;DHT22;10341;49.894;8.822;2023-02-08T14:48:47;5.00;85.60
20366;DHT22;10341;49.894;8.822;2023-02-08T14:54:31;5.00;86.40
20366;DHT22;10341;49.894;8.822;2023-02-08T14:59:53;4.90;87.30
20366;DHT22;10341;49.894;8.822;2023-02-08T15:05:25;4.80;87.00
20366;DHT22;10341;49.894;8.822;2023-02-08T15:10:45;4.80;87.70
20366;DHT22;10341;49.894;8.822;2023-02-08T15:16:10;4.70;88.40
20366;DHT22;10341;49.894;8.822;2023-02-08T15:21:31;4.60;89.60
20366;DHT22;10341;49.894;8.822;2023-02-08T15:26:56;4.50;89.90
20366;DHT22;10341;49.894;8.822;2023-02-08T15:32:18;4.40;90.20
20366;DHT22;10341;49.894;8.822;2023-02-08T15:37:38;4.30;90.30
20366;DHT22;10341;49.894;8.822;2023-02-08T15:43:10;4.20;90.50
20366;DHT22;10341;49.894;8.822;2023-02-08T15:48:30;4.10;91.20
20366;DHT22;10341;49.894;8.822;2023-02-08T15:53:53;4.10;91.00
20366;DHT22;10341;49.894;8.822;2023-02-08T15:59:19;3.80;91.70
20366;DHT22;10341;49.894;8.822;2023-02-08T16:04:42;3.80;91.80
20366;DHT22;10341;49.894;8.822;2023-02-08T16:10:05;3.60;92.70
20366;DHT22;10341;49.894;8.822;2023-02-08T16:15:43;3.50;92.70
20366;DHT22;10341;49.894;8.822;2023-02-08T16:21:15;3.50;92.80
20366;DHT22;10341;49.894;8.822;2023-02-08T16:26:52;3.30;93.50
20366;DHT22;10341;49.894;8.822;2023-02-08T16:32:35;2.90;94.40
20366;DHT22;10341;49.894;8.822;2023-02-08T16:37:59;2.90;94.80
20366;DHT22;10341;49.894;8.822;2023-02-08T16:48:42;2.50;96.60
20366;DHT22;10341;49.894;8.822;2023-02-08T16:54:04;2.20;97.90
20366;DHT22;10341;49.894;8.822;2023-02-08T16:59:27;1.90;99.70
20366;DHT22;10341;49.894;8.822;2023-02-08T17:04:47;1.70;99.90
20366;DHT22;10341;49.894;8.822;2023-02-08T17:10:37;1.30;99.90
20366;DHT22;10341;49.894;8.822;2023-02-08T17:15:57;1.10;99.90
20366;DHT22;10341;49.894;8.822;2023-02-08T17:21:18;0.90;99.90
20366;DHT22;10341;49.894;8.822;2023-02-08T17:26:42;0.80;99.90
20366;DHT22;10341;49.894;8.822;2023-02-08T17:32:02;0.60;99.90
20366;DHT22;10341;49.894;8.822;2023-02-08T17:37:21;0.40;99.90
20366;DHT22;10341;49.894;8.822;2023-02-08T17:42:41;0.20;99.90
20366;DHT22;10341;49.894;8.822;2023-02-08T17:48:00;-0.10;99.90
20366;DHT22;10341;49.894;8.822;2023-02-08T17:53:20;-0.30;99.90
20366;DHT22;10341;49.894;8.822;2023-02-08T17:58:40;-0.60;99.90
20366;DHT22;10341;49.894;8.822;2023-02-08T18:03:59;-0.90;99.90
20366;DHT22;10341;49.894;8.822;2023-02-08T18:09:19;-1.00;99.90
20366;DHT22;10341;49.894;8.822;2023-02-08T18:14:38;-1.00;99.90
20366;DHT22;10341;49.894;8.822;2023-02-08T18:19:58;-1.10;99.90
20366;DHT22;10341;49.894;8.822;2023-02-08T18:25:18;-1.20;99.90
20366;DHT22;10341;49.894;8.822;2023-02-08T18:30:39;-1.40;99.90
20366;DHT22;10341;49.894;8.822;2023-02-08T18:36:00;-1.50;99.90
20366;DHT22;10341;49.894;8.822;2023-02-08T18:41:24;-1.70;99.90
20366;DHT22;10341;49.894;8.822;2023-02-08T18:46:44;-1.70;99.90
20366;DHT22;10341;49.894;8.822;2023-02-08T18:52:10;-1.80;99.90
20366;DHT22;10341;49.894;8.822;2023-02-08T18:57:30;-1.90;99.90
20366;DHT22;10341;49.894;8.822;2023-02-08T19:02:50;-1.80;99.90
20366;DHT22;10341;49.894;8.822;2023-02-08T19:08:11;-1.60;99.90
20366;DHT22;10341;49.894;8.822;2023-02-08T19:13:31;-1.70;99.90
20366;DHT22;10341;49.894;8.822;2023-02-08T19:18:50;-1.80;99.90
20366;DHT22;10341;49.894;8.822;2023-02-08T19:24:12;-1.90;99.90
20366;DHT22;10341;49.894;8.822;2023-02-08T19:29:33;-1.80;99.90
20366;DHT22;10341;49.894;8.822;2023-02-08T19:34:52;-1.70;99.90
20366;DHT22;10341;49.894;8.822;2023-02-08T19:40:12;-2.00;99.90
20366;DHT22;10341;49.894;8.822;2023-02-08T19:45:34;-2.20;99.90
20366;DHT22;10341;49.894;8.822;2023-02-08T19:50:58;-2.40;99.90
20366;DHT22;10341;49.894;8.822;2023-02-08T19:56:18;-2.60;99.90
20366;DHT22;10341;49.894;8.822;2023-02-08T20:01:37;-2.70;99.90
20366;DHT22;10341;49.894;8.822;2023-02-08T20:06:57;-2.70;99.90
20366;DHT22;10341;49.894;8.822;2023-02-08T20:12:17;-2.80;99.90
20366;DHT22;10341;49.894;8.822;2023-02-08T20:17:37;-2.90;99.90
20366;DHT22;10341;49.894;8.822;2023-02-08T20:22:57;-2.70;99.90
20366;DHT22;10341;49.894;8.822;2023-02-08T20:28:16;-2.70;99.90
20366;DHT22;10341;49.894;8.822;2023-02-08T20:33:36;-2.70;99.90
20366;DHT22;10341;49.894;8.822;2023-02-08T20:38:57;-2.30;99.90
20366;DHT22;10341;49.894;8.822;2023-02-08T20:44:17;-2.50;99.90
20366;DHT22;10341;49.894;8.822;2023-02-08T20:49:40;-2.80;99.90
20366;DHT22;10341;49.894;8.822;2023-02-08T20:55:01;-3.00;99.90
20366;DHT22;10341;49.894;8.822;2023-02-08T21:00:20;-3.10;99.90
20366;DHT22;10341;49.894;8.822;2023-02-08T21:05:42;-3.20;99.90
20366;DHT22;10341;49.894;8.822;2023-02-08T21:11:01;-3.20;99.90
20366;DHT22;10341;49.894;8.822;2023-02-08T21:16:21;-3.20;99.90
20366;DHT22;10341;49.894;8.822;2023-02-08T21:21:41;-3.10;99.90
20366;DHT22;10341;49.894;8.822;2023-02-08T21:27:00;-2.70;99.90
20366;DHT22;10341;49.894;8.822;2023-02-08T21:32:20;-2.40;99.90
20366;DHT22;10341;49.894;8.822;2023-02-08T21:37:40;-2.00;99.90
20366;DHT22;10341;49.894;8.822;2023-02-08T21:42:59;-2.10;99.90
20366;DHT22;10341;49.894;8.822;2023-02-08T21:48:19;-2.20;99.90
20366;DHT22;10341;49.894;8.822;2023-02-08T21:53:38;-2.40;99.90
20366;DHT22;10341;49.894;8.822;2023-02-08T21:59:16;-2.60;99.90
20366;DHT22;10341;49.894;8.822;2023-02-08T22:04:36;-3.10;99.90
20366;DHT22;10341;49.894;8.822;2023-02-08T22:10:18;-3.30;99.90
20366;DHT22;10341;49.894;8.822;2023-02-08T22:15:38;-3.50;99.90
20366;DHT22;10341;49.894;8.822;2023-02-08T22:20:57;-3.60;99.90
20366;DHT22;10341;49.894;8.822;2023-02-08T22:26:17;-3.70;99.90
20366;DHT22;10341;49.894;8.822;2023-02-08T22:31:37;-3.80;99.90
20366;DHT22;10341;49.894;8.822;2023-02-08T22:36:56;-3.90;99.90
20366;DHT22;10341;49.894;8.822;2023-02-08T22:42:16;-3.90;99.90
20366;DHT22;10341;49.894;8.822;2023-02-08T22:47:35;-4.10;99.90
20366;DHT22;10341;49.894;8.822;2023-02-08T22:52:54;-4.20;99.90
20366;DHT22;10341;49.894;8.822;2023-02-08T22:58:14;-4.20;99.90
20366;DHT22;10341;49.894;8.822;2023-02-08T23:03:33;-4.20;99.90
20366;DHT22;10341;49.894;8.822;2023-02-08T23:08:53;-4.30;99.90
20366;DHT22;10341;49.894;8.822;2023-02-08T23:14:12;-4.30;99.90
20366;DHT22;10341;49.894;8.822;2023-02-08T23:19:32;-4.30;99.90
20366;DHT22;10341;49.894;8.822;2023-02-08T23:24:51;-4.10;99.90
20366;DHT22;10341;49.894;8.822;2023-02-08T23:30:12;-4.30;99.90
20366;DHT22;10341;49.894;8.822;2023-02-08T23:35:37;-4.30;99.90
20366;DHT22;10341;49.894;8.822;2023-02-08T23:40:57;-4.30;99.90
20366;DHT22;10341;49.894;8.822;2023-02-08T23:46:22;-4.30;99.90
20366;DHT22;10341;49.894;8.822;2023-02-08T23:51:42;-4.40;99.90
20366;DHT22;10341;49.894;8.822;2023-02-08T23:57:02;-4.50;99.90
